createdAt,value
2023-05-06T00:00:28.632Z,569.00
2023-05-06T00:01:28.638Z,568.00
2023-05-06T00:02:28.753Z,569.00
2023-05-06T00:03:28.883Z,568.00
2023-05-06T00:04:28.722Z,567.00
2023-05-06T00:05:28.782Z,568.00
2023-05-06T00:06:28.818Z,570.00
2023-05-06T00:07:29.257Z,573.00
2023-05-06T00:08:28.811Z,571.00
2023-05-06T00:09:28.832Z,572.00
2023-05-06T00:10:28.906Z,571.00
2023-05-06T00:11:28.876Z,573.00
2023-05-06T00:12:29.266Z,573.00
2023-05-06T00:13:28.933Z,572.00
2023-05-06T00:14:28.943Z,572.00
2023-05-06T00:15:30.184Z,571.00
2023-05-06T00:16:29.021Z,572.00
2023-05-06T00:17:29.015Z,574.00
2023-05-06T00:18:28.959Z,571.00
2023-05-06T00:19:28.952Z,575.00
2023-05-06T00:20:28.932Z,574.00
2023-05-06T00:21:28.930Z,572.00
2023-05-06T00:22:29.012Z,572.00
2023-05-06T00:23:28.950Z,570.00
2023-05-06T00:24:28.895Z,570.00
2023-05-06T00:25:28.903Z,571.00
2023-05-06T00:26:28.859Z,571.00
2023-05-06T00:27:28.938Z,572.00
2023-05-06T00:28:28.875Z,572.00
2023-05-06T00:29:28.880Z,568.00
2023-05-06T00:30:28.836Z,567.00
2023-05-06T00:31:28.876Z,567.00
2023-05-06T00:32:28.893Z,566.00
2023-05-06T00:33:28.862Z,568.00
2023-05-06T00:34:28.870Z,565.00
2023-05-06T00:35:28.831Z,566.00
2023-05-06T00:36:28.794Z,567.00
2023-05-06T00:37:28.826Z,567.00
2023-05-06T00:38:28.855Z,565.00
2023-05-06T00:39:28.806Z,565.00
2023-05-06T00:40:28.767Z,567.00
2023-05-06T00:41:28.762Z,567.00
2023-05-06T00:42:28.768Z,568.00
2023-05-06T00:43:28.768Z,569.00
2023-05-06T00:44:28.756Z,568.00
2023-05-06T00:45:28.728Z,568.00
2023-05-06T00:46:28.731Z,566.00
2023-05-06T00:47:28.741Z,566.00
2023-05-06T00:48:28.864Z,565.00
2023-05-06T00:49:28.686Z,565.00
2023-05-06T00:50:28.719Z,566.00
2023-05-06T00:51:28.669Z,564.00
2023-05-06T00:52:28.687Z,564.00
2023-05-06T00:53:28.695Z,567.00
2023-05-06T00:54:28.717Z,566.00
2023-05-06T00:55:28.662Z,565.00
2023-05-06T00:56:28.667Z,567.00
2023-05-06T00:57:28.653Z,568.00
2023-05-06T00:58:28.639Z,568.00
2023-05-06T00:59:28.651Z,567.00
2023-05-06T01:00:28.633Z,567.00
2023-05-06T01:01:28.635Z,565.00
2023-05-06T01:02:43.328Z,562.00
2023-05-06T01:03:29.869Z,560.00
2023-05-06T01:04:28.593Z,561.00
2023-05-06T01:05:28.568Z,561.00
2023-05-06T01:06:28.601Z,561.00
2023-05-06T01:07:28.584Z,561.00
2023-05-06T01:08:28.586Z,559.00
2023-05-06T01:09:28.541Z,557.00
2023-05-06T01:10:28.622Z,556.00
2023-05-06T01:11:28.540Z,556.00
2023-05-06T01:12:28.548Z,554.00
2023-05-06T01:13:28.794Z,555.00
2023-05-06T01:14:28.517Z,555.00
2023-05-06T01:15:28.533Z,556.00
2023-05-06T01:16:28.558Z,560.00
2023-05-06T01:17:28.548Z,561.00
2023-05-06T01:18:28.512Z,563.00
2023-05-06T01:19:28.553Z,564.00
2023-05-06T01:20:28.527Z,566.00
2023-05-06T01:21:28.590Z,566.00
2023-05-06T01:22:28.594Z,566.00
2023-05-06T01:23:28.672Z,562.00
2023-05-06T01:24:28.626Z,562.00
2023-05-06T01:25:28.710Z,559.00
2023-05-06T01:26:28.707Z,563.00
2023-05-06T01:27:28.760Z,560.00
2023-05-06T01:28:28.790Z,559.00
2023-05-06T01:29:28.808Z,555.00
2023-05-06T01:30:28.812Z,551.00
2023-05-06T01:31:28.878Z,549.00
2023-05-06T01:32:28.950Z,549.00
2023-05-06T01:33:29.321Z,552.00
2023-05-06T01:34:28.967Z,555.00
2023-05-06T01:35:28.987Z,557.00
2023-05-06T01:36:28.984Z,557.00
2023-05-06T01:37:29.029Z,560.00
2023-05-06T01:38:29.299Z,561.00
2023-05-06T01:39:29.108Z,559.00
2023-05-06T01:40:29.133Z,558.00
2023-05-06T01:41:29.132Z,558.00
2023-05-06T01:42:29.289Z,557.00
2023-05-06T01:43:29.237Z,556.00
2023-05-06T01:44:29.287Z,554.00
2023-05-06T01:45:29.326Z,563.00
2023-05-06T01:46:29.356Z,563.00
2023-05-06T01:47:29.383Z,564.00
2023-05-06T01:48:29.378Z,560.00
2023-05-06T01:49:29.417Z,559.00
2023-05-06T01:50:29.454Z,559.00
2023-05-06T01:51:29.488Z,559.00
2023-05-06T01:52:29.528Z,559.00
2023-05-06T01:53:29.584Z,558.00
2023-05-06T01:54:29.605Z,560.00
2023-05-06T01:55:29.675Z,559.00
2023-05-06T01:56:29.666Z,557.00
2023-05-06T01:57:29.700Z,557.00
2023-05-06T01:58:29.799Z,558.00
2023-05-06T01:59:29.793Z,558.00
2023-05-06T02:00:29.806Z,556.00
2023-05-06T02:01:29.884Z,556.00
2023-05-06T02:02:29.995Z,556.00
2023-05-06T02:03:30.000Z,555.00
2023-05-06T02:04:29.990Z,558.00
2023-05-06T02:05:29.966Z,559.00
2023-05-06T02:06:30.022Z,558.00
2023-05-06T02:07:30.061Z,560.00
2023-05-06T02:08:30.092Z,560.00
2023-05-06T02:09:30.131Z,560.00
2023-05-06T02:10:30.167Z,559.00
2023-05-06T02:11:30.253Z,556.00
2023-05-06T02:12:30.249Z,558.00
2023-05-06T02:13:30.302Z,559.00
2023-05-06T02:14:30.419Z,557.00
2023-05-06T02:15:30.367Z,560.00
2023-05-06T02:16:30.397Z,559.00
2023-05-06T02:17:30.442Z,559.00
2023-05-06T02:18:30.487Z,561.00
2023-05-06T02:19:30.547Z,562.00
2023-05-06T02:20:30.523Z,564.00
2023-05-06T02:21:30.623Z,564.00
2023-05-06T02:22:30.632Z,562.00
2023-05-06T02:23:30.707Z,560.00
2023-05-06T02:24:30.694Z,557.00
2023-05-06T02:25:30.734Z,556.00
2023-05-06T02:26:30.776Z,555.00
2023-05-06T02:27:30.826Z,554.00
2023-05-06T02:28:30.843Z,554.00
2023-05-06T02:29:30.895Z,555.00
2023-05-06T02:30:31.025Z,554.00
2023-05-06T02:31:30.983Z,554.00
2023-05-06T02:32:31.023Z,556.00
2023-05-06T02:33:31.355Z,557.00
2023-05-06T02:34:31.070Z,556.00
2023-05-06T02:35:31.108Z,553.00
2023-05-06T02:36:31.168Z,552.00
2023-05-06T02:37:31.243Z,552.00
2023-05-06T02:38:31.234Z,554.00
2023-05-06T02:39:31.253Z,553.00
2023-05-06T02:40:31.281Z,554.00
2023-05-06T02:41:31.306Z,552.00
2023-05-06T02:42:31.394Z,550.00
2023-05-06T02:43:31.393Z,547.00
2023-05-06T02:44:31.430Z,549.00
2023-05-06T02:45:31.530Z,550.00
2023-05-06T02:46:31.611Z,553.00
2023-05-06T02:47:31.603Z,555.00
2023-05-06T02:48:31.821Z,558.00
2023-05-06T02:49:31.644Z,559.00
2023-05-06T02:50:31.678Z,560.00
2023-05-06T02:51:31.714Z,561.00
2023-05-06T02:52:31.735Z,559.00
2023-05-06T02:53:31.786Z,558.00
2023-05-06T02:54:31.869Z,559.00
2023-05-06T02:55:31.891Z,557.00
2023-05-06T02:56:31.890Z,559.00
2023-05-06T02:57:31.966Z,559.00
2023-05-06T02:58:31.994Z,557.00
2023-05-06T02:59:32.026Z,555.00
2023-05-06T03:00:32.117Z,553.00
2023-05-06T03:01:32.197Z,552.00
2023-05-06T03:02:32.355Z,551.00
2023-05-06T03:03:32.337Z,551.00
2023-05-06T03:04:32.262Z,554.00
2023-05-06T03:05:32.291Z,556.00
2023-05-06T03:06:32.324Z,556.00
2023-05-06T03:07:32.361Z,552.00
2023-05-06T03:08:32.409Z,552.00
2023-05-06T03:09:32.433Z,549.00
2023-05-06T03:10:32.446Z,549.00
2023-05-06T03:11:32.489Z,546.00
2023-05-06T03:12:32.580Z,547.00
2023-05-06T03:13:32.558Z,544.00
2023-05-06T03:14:32.565Z,544.00
2023-05-06T03:15:32.611Z,546.00
2023-05-06T03:16:32.729Z,544.00
2023-05-06T03:17:32.711Z,542.00
2023-05-06T03:18:32.781Z,542.00
2023-05-06T03:19:32.782Z,544.00
2023-05-06T03:20:32.785Z,544.00
2023-05-06T03:21:32.841Z,547.00
2023-05-06T03:22:32.864Z,550.00
2023-05-06T03:23:32.935Z,550.00
2023-05-06T03:24:32.936Z,550.00
2023-05-06T03:25:33.034Z,550.00
2023-05-06T03:26:33.111Z,548.00
2023-05-06T03:27:33.109Z,550.00
2023-05-06T03:28:33.202Z,551.00
2023-05-06T03:29:33.236Z,550.00
2023-05-06T03:30:33.247Z,550.00
2023-05-06T03:31:33.333Z,550.00
2023-05-06T03:32:33.381Z,550.00
2023-05-06T03:33:33.390Z,549.00
2023-05-06T03:34:33.468Z,550.00
2023-05-06T03:35:33.494Z,550.00
2023-05-06T03:36:33.525Z,551.00
2023-05-06T03:37:33.588Z,548.00
2023-05-06T03:38:33.648Z,547.00
2023-05-06T03:39:33.621Z,548.00
2023-05-06T03:40:33.718Z,548.00
2023-05-06T03:41:33.730Z,546.00
2023-05-06T03:42:33.783Z,545.00
2023-05-06T03:43:33.870Z,544.00
2023-05-06T03:44:33.894Z,542.00
2023-05-06T03:45:33.942Z,541.00
2023-05-06T03:46:34.012Z,544.00
2023-05-06T03:47:34.064Z,545.00
2023-05-06T03:48:34.018Z,545.00
2023-05-06T03:49:34.115Z,545.00
2023-05-06T03:50:34.152Z,547.00
2023-05-06T03:51:34.196Z,548.00
2023-05-06T03:52:34.196Z,548.00
2023-05-06T03:53:34.270Z,548.00
2023-05-06T03:54:34.281Z,548.00
2023-05-06T03:55:34.333Z,547.00
2023-05-06T03:56:34.403Z,546.00
2023-05-06T03:57:34.455Z,548.00
2023-05-06T03:58:34.544Z,546.00
2023-05-06T03:59:34.560Z,546.00
2023-05-06T04:00:34.591Z,544.00
2023-05-06T04:01:34.604Z,544.00
2023-05-06T04:02:34.762Z,543.00
2023-05-06T04:03:34.884Z,541.00
2023-05-06T04:04:34.809Z,541.00
2023-05-06T04:05:34.874Z,542.00
2023-05-06T04:06:34.967Z,539.00
2023-05-06T04:07:34.897Z,542.00
2023-05-06T04:08:35.335Z,540.00
2023-05-06T04:09:34.979Z,540.00
2023-05-06T04:10:35.018Z,539.00
2023-05-06T04:11:35.062Z,541.00
2023-05-06T04:12:35.169Z,543.00
2023-05-06T04:13:35.166Z,543.00
2023-05-06T04:14:35.200Z,543.00
2023-05-06T04:15:35.214Z,541.00
2023-05-06T04:16:35.292Z,540.00
2023-05-06T04:17:35.361Z,540.00
2023-05-06T04:18:35.407Z,541.00
2023-05-06T04:19:35.399Z,537.00
2023-05-06T04:20:35.419Z,540.00
2023-05-06T04:21:35.502Z,542.00
2023-05-06T04:22:35.665Z,542.00
2023-05-06T04:23:35.620Z,540.00
2023-05-06T04:24:35.635Z,538.00
2023-05-06T04:25:35.707Z,539.00
2023-05-06T04:26:35.746Z,540.00
2023-05-06T04:27:35.784Z,540.00
2023-05-06T04:28:35.841Z,540.00
2023-05-06T04:29:35.858Z,538.00
2023-05-06T04:30:35.950Z,540.00
2023-05-06T04:31:36.067Z,541.00
2023-05-06T04:32:36.109Z,542.00
2023-05-06T04:33:36.071Z,540.00
2023-05-06T04:34:36.127Z,544.00
2023-05-06T04:35:36.162Z,545.00
2023-05-06T04:36:36.534Z,542.00
2023-05-06T04:37:36.220Z,542.00
2023-05-06T04:38:36.341Z,544.00
2023-05-06T04:39:36.293Z,546.00
2023-05-06T04:40:36.366Z,549.00
2023-05-06T04:41:36.433Z,545.00
2023-05-06T04:42:36.475Z,545.00
2023-05-06T04:43:36.513Z,546.00
2023-05-06T04:44:36.554Z,544.00
2023-05-06T04:45:36.691Z,543.00
2023-05-06T04:46:36.687Z,540.00
2023-05-06T04:47:36.762Z,540.00
2023-05-06T04:48:36.746Z,541.00
2023-05-06T04:49:36.782Z,541.00
2023-05-06T04:50:36.828Z,542.00
2023-05-06T04:51:36.886Z,541.00
2023-05-06T04:52:36.970Z,542.00
2023-05-06T04:53:37.003Z,540.00
2023-05-06T04:54:37.094Z,539.00
2023-05-06T04:55:37.129Z,540.00
2023-05-06T04:56:37.115Z,541.00
2023-05-06T04:57:37.176Z,543.00
2023-05-06T04:58:37.232Z,543.00
2023-05-06T04:59:37.267Z,544.00
2023-05-06T05:00:37.343Z,544.00
2023-05-06T05:01:37.446Z,543.00
2023-05-06T05:02:37.524Z,543.00
2023-05-06T05:03:37.568Z,544.00
2023-05-06T05:04:37.531Z,542.00
2023-05-06T05:05:37.623Z,542.00
2023-05-06T05:06:37.705Z,540.00
2023-05-06T05:07:37.711Z,541.00
2023-05-06T05:08:37.782Z,542.00
2023-05-06T05:09:37.816Z,542.00
2023-05-06T05:10:37.966Z,543.00
2023-05-06T05:11:37.909Z,544.00
2023-05-06T05:12:38.045Z,546.00
2023-05-06T05:13:38.066Z,543.00
2023-05-06T05:14:38.058Z,544.00
2023-05-06T05:15:38.145Z,543.00
2023-05-06T05:16:38.252Z,542.00
2023-05-06T05:17:38.265Z,539.00
2023-05-06T05:18:38.262Z,539.00
2023-05-06T05:19:38.352Z,538.00
2023-05-06T05:20:38.373Z,537.00
2023-05-06T05:21:38.392Z,536.00
2023-05-06T05:22:38.526Z,536.00
2023-05-06T05:23:38.535Z,535.00
2023-05-06T05:24:38.550Z,534.00
2023-05-06T05:25:38.595Z,532.00
2023-05-06T05:26:38.641Z,534.00
2023-05-06T05:27:38.677Z,534.00
2023-05-06T05:28:38.894Z,536.00
2023-05-06T05:29:38.774Z,539.00
2023-05-06T05:30:38.816Z,542.00
2023-05-06T05:31:38.899Z,543.00
2023-05-06T05:32:38.927Z,541.00
2023-05-06T05:33:39.004Z,541.00
2023-05-06T05:34:39.018Z,542.00
2023-05-06T05:35:39.089Z,540.00
2023-05-06T05:36:39.135Z,540.00
2023-05-06T05:37:39.156Z,539.00
2023-05-06T05:38:39.203Z,540.00
2023-05-06T05:39:39.269Z,541.00
2023-05-06T05:40:39.350Z,540.00
2023-05-06T05:41:39.333Z,540.00
2023-05-06T05:42:39.495Z,539.00
2023-05-06T05:43:39.462Z,541.00
2023-05-06T05:44:39.517Z,540.00
2023-05-06T05:45:39.566Z,538.00
2023-05-06T05:46:39.711Z,535.00
2023-05-06T05:47:39.702Z,535.00
2023-05-06T05:48:39.731Z,537.00
2023-05-06T05:49:39.741Z,539.00
2023-05-06T05:50:39.817Z,538.00
2023-05-06T05:51:39.826Z,538.00
2023-05-06T05:52:39.920Z,537.00
2023-05-06T05:53:39.967Z,535.00
2023-05-06T05:54:39.994Z,537.00
2023-05-06T05:55:40.070Z,536.00
2023-05-06T05:56:40.114Z,536.00
2023-05-06T05:57:40.189Z,539.00
2023-05-06T05:58:40.268Z,538.00
2023-05-06T05:59:40.287Z,538.00
2023-05-06T06:00:40.327Z,537.00
2023-05-06T06:01:40.383Z,538.00
2023-05-06T06:02:40.538Z,537.00
2023-05-06T06:03:40.546Z,537.00
2023-05-06T06:04:40.589Z,533.00
2023-05-06T06:05:40.559Z,532.00
2023-05-06T06:06:40.627Z,532.00
2023-05-06T06:07:40.723Z,534.00
2023-05-06T06:08:40.762Z,532.00
2023-05-06T06:09:40.788Z,529.00
2023-05-06T06:10:40.878Z,528.00
2023-05-06T06:11:40.905Z,529.00
2023-05-06T06:12:40.992Z,531.00
2023-05-06T06:13:41.018Z,532.00
2023-05-06T06:14:41.114Z,531.00
2023-05-06T06:15:41.103Z,532.00
2023-05-06T06:16:41.283Z,533.00
2023-05-06T06:17:41.256Z,536.00
2023-05-06T06:18:41.239Z,533.00
2023-05-06T06:19:41.884Z,532.00
2023-05-06T06:20:41.352Z,535.00
2023-05-06T06:21:41.387Z,536.00
2023-05-06T06:22:41.510Z,536.00
2023-05-06T06:23:41.484Z,536.00
2023-05-06T06:24:41.541Z,536.00
2023-05-06T06:25:41.630Z,538.00
2023-05-06T06:26:41.629Z,537.00
2023-05-06T06:27:41.714Z,533.00
2023-05-06T06:28:41.782Z,533.00
2023-05-06T06:29:41.766Z,534.00
2023-05-06T06:30:41.908Z,533.00
2023-05-06T06:31:41.956Z,532.00
2023-05-06T06:32:41.963Z,531.00
2023-05-06T06:33:42.070Z,531.00
2023-05-06T06:34:42.033Z,531.00
2023-05-06T06:35:42.165Z,531.00
2023-05-06T06:36:42.151Z,531.00
2023-05-06T06:37:42.227Z,530.00
2023-05-06T06:38:42.275Z,529.00
2023-05-06T06:39:42.344Z,528.00
2023-05-06T06:40:42.375Z,532.00
2023-05-06T06:41:42.425Z,531.00
2023-05-06T06:42:42.510Z,530.00
2023-05-06T06:43:42.561Z,530.00
2023-05-06T06:44:42.611Z,531.00
2023-05-06T06:45:42.715Z,532.00
2023-05-06T06:46:42.783Z,531.00
2023-05-06T06:47:42.801Z,529.00
2023-05-06T06:48:42.918Z,527.00
2023-05-06T06:49:42.936Z,528.00
2023-05-06T06:50:42.971Z,530.00
2023-05-06T06:51:42.983Z,530.00
2023-05-06T06:52:43.041Z,530.00
2023-05-06T06:53:43.106Z,528.00
2023-05-06T06:54:43.154Z,529.00
2023-05-06T06:55:43.212Z,530.00
2023-05-06T06:56:43.261Z,528.00
2023-05-06T06:57:43.285Z,529.00
2023-05-06T06:58:43.360Z,530.00
2023-05-06T06:59:43.422Z,527.00
2023-05-06T07:00:43.489Z,527.00
2023-05-06T07:01:44.550Z,527.00
2023-05-06T07:02:43.640Z,524.00
2023-05-06T07:03:43.692Z,523.00
2023-05-06T07:04:43.784Z,522.00
2023-05-06T07:05:43.746Z,521.00
2023-05-06T07:06:43.769Z,519.00
2023-05-06T07:07:43.821Z,518.00
2023-05-06T07:08:43.871Z,521.00
2023-05-06T07:09:43.871Z,521.00
2023-05-06T07:10:43.963Z,521.00
2023-05-06T07:11:43.956Z,519.00
2023-05-06T07:12:44.132Z,521.00
2023-05-06T07:13:44.098Z,520.00
2023-05-06T07:14:44.132Z,520.00
2023-05-06T07:15:44.180Z,521.00
2023-05-06T07:16:46.359Z,525.00
2023-05-06T07:17:44.287Z,524.00
2023-05-06T07:18:44.216Z,521.00
2023-05-06T07:19:44.207Z,522.00
2023-05-06T07:20:44.224Z,521.00
2023-05-06T07:21:44.172Z,520.00
2023-05-06T07:22:44.196Z,521.00
2023-05-06T07:23:44.155Z,520.00
2023-05-06T07:24:44.202Z,521.00
2023-05-06T07:25:44.159Z,524.00
2023-05-06T07:26:44.154Z,524.00
2023-05-06T07:27:44.173Z,526.00
2023-05-06T07:28:44.132Z,526.00
2023-05-06T07:29:44.133Z,527.00
2023-05-06T07:30:44.202Z,527.00
2023-05-06T07:31:44.125Z,526.00
2023-05-06T07:32:44.121Z,525.00
2023-05-06T07:33:44.161Z,525.00
2023-05-06T07:34:44.103Z,525.00
2023-05-06T07:35:44.072Z,524.00
2023-05-06T07:36:44.047Z,520.00
2023-05-06T07:37:44.110Z,520.00
2023-05-06T07:38:44.095Z,518.00
2023-05-06T07:39:44.063Z,517.00
2023-05-06T07:40:44.079Z,517.00
2023-05-06T07:41:44.037Z,515.00
2023-05-06T07:42:44.060Z,515.00
2023-05-06T07:43:44.104Z,518.00
2023-05-06T07:44:44.042Z,518.00
2023-05-06T07:45:44.052Z,516.00
2023-05-06T07:46:44.057Z,513.00
2023-05-06T07:47:44.051Z,515.00
2023-05-06T07:48:43.999Z,516.00
2023-05-06T07:49:43.979Z,518.00
2023-05-06T07:50:43.983Z,518.00
2023-05-06T07:51:43.995Z,520.00
2023-05-06T07:52:43.964Z,521.00
2023-05-06T07:53:43.937Z,520.00
2023-05-06T07:54:43.947Z,517.00
2023-05-06T07:55:43.920Z,516.00
2023-05-06T07:56:43.932Z,517.00
2023-05-06T07:57:43.930Z,515.00
2023-05-06T07:58:43.949Z,517.00
2023-05-06T07:59:43.938Z,514.00
2023-05-06T08:00:43.887Z,516.00
2023-05-06T08:01:43.894Z,514.00
2023-05-06T08:02:44.126Z,516.00
2023-05-06T08:03:44.135Z,516.00
2023-05-06T08:04:43.976Z,517.00
2023-05-06T08:05:43.968Z,518.00
2023-05-06T08:06:43.898Z,520.00
2023-05-06T08:07:43.939Z,522.00
2023-05-06T08:08:43.952Z,522.00
2023-05-06T08:09:44.001Z,521.00
2023-05-06T08:10:44.023Z,521.00
2023-05-06T08:11:44.073Z,521.00
2023-05-06T08:12:44.170Z,522.00
2023-05-06T08:13:44.166Z,521.00
2023-05-06T08:14:44.206Z,519.00
2023-05-06T08:15:44.245Z,518.00
2023-05-06T08:16:44.391Z,518.00
2023-05-06T08:17:44.319Z,518.00
2023-05-06T08:18:44.374Z,518.00
2023-05-06T08:19:44.395Z,519.00
2023-05-06T08:20:44.461Z,519.00
2023-05-06T08:21:44.550Z,519.00
2023-05-06T08:22:44.564Z,519.00
2023-05-06T08:23:44.634Z,519.00
2023-05-06T08:24:44.602Z,516.00
2023-05-06T08:25:44.637Z,517.00
2023-05-06T08:26:44.697Z,520.00
2023-05-06T08:27:45.415Z,516.00
2023-05-06T08:28:44.774Z,515.00
2023-05-06T08:29:44.820Z,514.00
2023-05-06T08:30:45.492Z,515.00
2023-05-06T08:31:44.934Z,514.00
2023-05-06T08:32:44.984Z,514.00
2023-05-06T08:33:45.003Z,513.00
2023-05-06T08:34:44.977Z,513.00
2023-05-06T08:35:45.073Z,516.00
2023-05-06T08:36:45.106Z,518.00
2023-05-06T08:37:45.268Z,519.00
2023-05-06T08:38:45.227Z,520.00
2023-05-06T08:39:45.194Z,522.00
2023-05-06T08:40:45.209Z,521.00
2023-05-06T08:41:45.381Z,519.00
2023-05-06T08:42:45.284Z,516.00
2023-05-06T08:43:45.389Z,515.00
2023-05-06T08:44:45.354Z,513.00
2023-05-06T08:45:45.429Z,513.00
2023-05-06T08:46:45.474Z,513.00
2023-05-06T08:47:45.522Z,513.00
2023-05-06T08:48:45.549Z,510.00
2023-05-06T08:49:45.569Z,510.00
2023-05-06T08:50:45.635Z,510.00
2023-05-06T08:51:45.675Z,506.00
2023-05-06T08:52:45.680Z,508.00
2023-05-06T08:53:45.761Z,508.00
2023-05-06T08:54:45.740Z,506.00
2023-05-06T08:55:45.776Z,509.00
2023-05-06T08:56:45.817Z,515.00
2023-05-06T08:57:45.824Z,515.00
2023-05-06T08:58:45.885Z,515.00
2023-05-06T08:59:45.892Z,515.00
2023-05-06T09:00:46.973Z,513.00
2023-05-06T09:01:45.968Z,512.00
2023-05-06T09:02:46.078Z,512.00
2023-05-06T09:03:46.073Z,515.00
2023-05-06T09:04:46.072Z,514.00
2023-05-06T09:05:46.074Z,516.00
2023-05-06T09:06:46.107Z,515.00
2023-05-06T09:07:46.171Z,514.00
2023-05-06T09:08:46.204Z,511.00
2023-05-06T09:09:46.289Z,511.00
2023-05-06T09:10:46.306Z,511.00
2023-05-06T09:11:46.297Z,508.00
2023-05-06T09:12:46.340Z,507.00
2023-05-06T09:13:46.376Z,506.00
2023-05-06T09:14:46.459Z,504.00
2023-05-06T09:15:46.429Z,505.00
2023-05-06T09:16:46.479Z,507.00
2023-05-06T09:17:46.478Z,507.00
2023-05-06T09:18:46.476Z,506.00
2023-05-06T09:19:46.547Z,507.00
2023-05-06T09:20:46.556Z,508.00
2023-05-06T09:21:46.592Z,508.00
2023-05-06T09:22:46.618Z,507.00
2023-05-06T09:23:46.652Z,505.00
2023-05-06T09:24:46.688Z,504.00
2023-05-06T09:25:46.794Z,503.00
2023-05-06T09:26:46.782Z,500.00
2023-05-06T09:27:46.812Z,501.00
2023-05-06T09:28:46.824Z,503.00
2023-05-06T09:29:46.860Z,504.00
2023-05-06T09:30:46.912Z,502.00
2023-05-06T09:31:46.929Z,502.00
2023-05-06T09:32:46.951Z,502.00
2023-05-06T09:33:46.989Z,503.00
2023-05-06T09:34:47.032Z,504.00
2023-05-06T09:35:47.027Z,506.00
2023-05-06T09:36:47.151Z,505.00
2023-05-06T09:37:47.144Z,505.00
2023-05-06T09:38:47.161Z,504.00
2023-05-06T09:39:47.243Z,504.00
2023-05-06T09:40:47.246Z,504.00
2023-05-06T09:41:47.290Z,500.00
2023-05-06T09:42:47.298Z,501.00
2023-05-06T09:43:47.316Z,502.00
2023-05-06T09:44:47.362Z,504.00
2023-05-06T09:45:47.435Z,503.00
2023-05-06T09:46:47.453Z,504.00
2023-05-06T09:47:47.560Z,506.00
2023-05-06T09:48:47.531Z,506.00
2023-05-06T09:49:47.567Z,507.00
2023-05-06T09:50:47.601Z,505.00
2023-05-06T09:51:47.626Z,504.00
2023-05-06T09:52:47.657Z,506.00
2023-05-06T09:53:47.714Z,508.00
2023-05-06T09:54:47.749Z,504.00
2023-05-06T09:55:47.780Z,503.00
2023-05-06T09:56:47.875Z,504.00
2023-05-06T09:57:47.856Z,503.00
2023-05-06T09:58:47.884Z,504.00
2023-05-06T09:59:47.871Z,501.00
2023-05-06T10:00:47.957Z,502.00
2023-05-06T10:01:48.006Z,503.00
2023-05-06T10:02:48.132Z,503.00
2023-05-06T10:03:48.162Z,504.00
2023-05-06T10:04:48.287Z,504.00
2023-05-06T10:05:48.053Z,505.00
2023-05-06T10:06:48.108Z,504.00
2023-05-06T10:07:48.111Z,501.00
2023-05-06T10:08:48.158Z,500.00
2023-05-06T10:09:48.196Z,500.00
2023-05-06T10:10:48.184Z,499.00
2023-05-06T10:11:48.204Z,499.00
2023-05-06T10:12:48.298Z,498.00
2023-05-06T10:13:48.293Z,500.00
2023-05-06T10:14:48.349Z,500.00
2023-05-06T10:15:48.393Z,499.00
2023-05-06T10:16:48.374Z,497.00
2023-05-06T10:17:48.476Z,497.00
2023-05-06T10:18:48.442Z,497.00
2023-05-06T10:19:48.581Z,497.00
2023-05-06T10:20:48.512Z,499.00
2023-05-06T10:21:48.518Z,498.00
2023-05-06T10:22:48.574Z,498.00
2023-05-06T10:23:48.543Z,497.00
2023-05-06T10:24:48.606Z,495.00
2023-05-06T10:25:48.644Z,495.00
2023-05-06T10:26:48.651Z,495.00
2023-05-06T10:27:48.687Z,497.00
2023-05-06T10:28:48.722Z,497.00
2023-05-06T10:29:48.859Z,498.00
2023-05-06T10:30:48.731Z,501.00
2023-05-06T10:31:48.842Z,500.00
2023-05-06T10:32:48.799Z,503.00
2023-05-06T10:33:48.773Z,505.00
2023-05-06T10:34:48.775Z,508.00
2023-05-06T10:35:48.861Z,509.00
2023-05-06T10:36:48.813Z,506.00
2023-05-06T10:37:48.868Z,506.00
2023-05-06T10:38:48.875Z,506.00
2023-05-06T10:39:49.473Z,504.00
2023-05-06T10:40:48.905Z,506.00
2023-05-06T10:41:49.505Z,505.00
2023-05-06T10:42:48.972Z,504.00
2023-05-06T10:43:48.934Z,503.00
2023-05-06T10:44:48.954Z,504.00
2023-05-06T10:45:49.137Z,502.00
2023-05-06T10:46:49.009Z,502.00
2023-05-06T10:47:49.058Z,502.00
2023-05-06T10:48:49.063Z,506.00
2023-05-06T10:49:49.069Z,506.00
2023-05-06T10:50:49.082Z,503.00
2023-05-06T10:51:49.087Z,504.00
2023-05-06T10:52:49.072Z,503.00
2023-05-06T10:53:49.092Z,502.00
2023-05-06T10:54:49.133Z,504.00
2023-05-06T10:55:49.133Z,502.00
2023-05-06T10:56:49.148Z,501.00
2023-05-06T10:57:49.146Z,502.00
2023-05-06T10:58:49.147Z,501.00
2023-05-06T10:59:49.199Z,499.00
2023-05-06T11:00:49.229Z,499.00
2023-05-06T11:01:49.284Z,497.00
2023-05-06T11:02:49.252Z,499.00
2023-05-06T11:03:49.401Z,498.00
2023-05-06T11:04:49.276Z,497.00
2023-05-06T11:05:49.336Z,497.00
2023-05-06T11:06:49.333Z,497.00
2023-05-06T11:07:49.355Z,497.00
2023-05-06T11:08:49.390Z,500.00
2023-05-06T11:09:49.396Z,499.00
2023-05-06T11:10:49.406Z,498.00
2023-05-06T11:11:49.425Z,500.00
2023-05-06T11:12:49.780Z,500.00
2023-05-06T11:13:50.652Z,497.00
2023-05-06T11:14:49.475Z,497.00
2023-05-06T11:15:49.465Z,500.00
2023-05-06T11:16:49.556Z,501.00
2023-05-06T11:17:49.664Z,500.00
2023-05-06T11:18:49.558Z,500.00
2023-05-06T11:19:49.583Z,501.00
2023-05-06T11:20:49.574Z,504.00
2023-05-06T11:21:50.726Z,504.00
2023-05-06T11:22:49.622Z,504.00
2023-05-06T11:23:49.721Z,502.00
2023-05-06T11:24:49.639Z,504.00
2023-05-06T11:25:49.651Z,505.00
2023-05-06T11:26:49.693Z,504.00
2023-05-06T11:27:50.925Z,503.00
2023-05-06T11:28:49.738Z,504.00
2023-05-06T11:29:49.742Z,502.00
2023-05-06T11:30:49.751Z,503.00
2023-05-06T11:31:49.770Z,504.00
2023-05-06T11:32:49.806Z,507.00
2023-05-06T11:33:49.904Z,511.00
2023-05-06T11:34:49.814Z,510.00
2023-05-06T11:35:49.818Z,508.00
2023-05-06T11:36:49.835Z,505.00
2023-05-06T11:37:49.897Z,504.00
2023-05-06T11:38:49.873Z,501.00
2023-05-06T11:39:49.882Z,500.00
2023-05-06T11:40:49.875Z,503.00
2023-05-06T11:41:49.886Z,504.00
2023-05-06T11:42:49.940Z,506.00
2023-05-06T11:43:50.059Z,503.00
2023-05-06T11:44:49.955Z,503.00
2023-05-06T11:45:49.964Z,501.00
2023-05-06T11:46:50.098Z,502.00
2023-05-06T11:47:50.031Z,502.00
2023-05-06T11:48:50.032Z,504.00
2023-05-06T11:49:50.132Z,504.00
2023-05-06T11:50:50.067Z,506.00
2023-05-06T11:51:50.087Z,504.00
2023-05-06T11:52:50.093Z,503.00
2023-05-06T11:53:50.106Z,503.00
2023-05-06T11:54:50.272Z,503.00
2023-05-06T11:55:50.123Z,504.00
2023-05-06T11:56:50.140Z,505.00
2023-05-06T11:57:50.123Z,503.00
2023-05-06T11:58:50.132Z,505.00
2023-05-06T11:59:50.190Z,503.00
2023-05-06T12:00:51.312Z,502.00
2023-05-06T12:01:50.186Z,502.00
2023-05-06T12:02:50.308Z,504.00
2023-05-06T12:03:50.329Z,503.00
2023-05-06T12:04:50.301Z,504.00
2023-05-06T12:05:50.266Z,503.00
2023-05-06T12:06:50.241Z,505.00
2023-05-06T12:07:50.293Z,506.00
2023-05-06T12:08:50.508Z,508.00
2023-05-06T12:09:50.320Z,507.00
2023-05-06T12:10:50.319Z,507.00
2023-05-06T12:11:50.312Z,509.00
2023-05-06T12:12:50.361Z,508.00
2023-05-06T12:13:50.333Z,506.00
2023-05-06T12:14:50.359Z,505.00
2023-05-06T12:15:50.449Z,505.00
2023-05-06T12:16:50.413Z,506.00
2023-05-06T12:17:50.419Z,503.00
2023-05-06T12:18:50.407Z,504.00
2023-05-06T12:19:50.367Z,502.00
2023-05-06T12:20:50.437Z,502.00
2023-05-06T12:21:50.490Z,501.00
2023-05-06T12:22:50.456Z,501.00
2023-05-06T12:23:50.496Z,501.00
2023-05-06T12:24:50.544Z,499.00
2023-05-06T12:25:50.471Z,498.00
2023-05-06T12:26:50.475Z,499.00
2023-05-06T12:27:50.470Z,504.00
2023-05-06T12:28:50.484Z,509.00